Time;durP1;ratioP1;P1;durP2;ratioP2;P2;SDS_P1;SDS_P2;PMS_P1;PMS_P2;Temp;Humidity;BMP_temperature;BMP_pressure;BME280_temperature;BME280_humidity;BME280_pressure;Samples;Min_cycle;Max_cycle;Signal;HPM_P1;HPM_P2
2023/07/21 00:02:19;;;;;;;1.02;0.10;;;22.30;74.40;;;;;;5096968;28;20514;-80
2023/07/21 00:04:45;;;;;;;0.88;0.13;;;22.30;74.50;;;;;;5096652;28;20043;-80
2023/07/21 00:07:11;;;;;;;0.50;0.13;;;22.30;74.50;;;;;;5096551;28;20027;-80
2023/07/21 00:09:40;;;;;;;0.60;0.20;;;22.30;74.50;;;;;;5096677;28;20032;-80
2023/07/21 00:12:05;;;;;;;1.83;0.20;;;22.20;74.50;;;;;;5080003;28;20118;-80
2023/07/21 00:14:31;;;;;;;0.60;0.10;;;22.20;74.40;;;;;;5114376;28;20127;-80
2023/07/21 00:16:57;;;;;;;0.30;0.10;;;22.20;74.50;;;;;;5096486;28;20053;-80
2023/07/21 00:19:22;;;;;;;0.50;0.10;;;22.20;74.50;;;;;;5114321;28;20454;-80
2023/07/21 00:21:49;;;;;;;2.25;0.15;;;22.20;74.60;;;;;;5114402;28;20384;-80
2023/07/21 00:24:15;;;;;;;0.65;0.10;;;22.20;74.70;;;;;;5114323;28;20368;-80
2023/07/21 00:26:41;;;;;;;0.95;0.17;;;22.20;74.60;;;;;;5114078;28;20024;-80
2023/07/21 00:29:07;;;;;;;0.40;0.20;;;22.20;74.60;;;;;;5114200;28;20084;-80
2023/07/21 00:31:32;;;;;;;1.95;0.20;;;22.20;74.70;;;;;;5114336;28;20102;-80
2023/07/21 00:33:58;;;;;;;0.73;0.20;;;22.20;75.30;;;;;;5114422;28;20118;-80
2023/07/21 00:36:24;;;;;;;0.47;0.25;;;22.20;74.70;;;;;;5114425;28;20443;-80
2023/07/21 00:38:50;;;;;;;0.32;0.10;;;22.20;74.60;;;;;;5096269;28;20024;-80
2023/07/21 00:41:17;;;;;;;0.70;0.10;;;22.20;74.60;;;;;;5113764;28;20383;-80
2023/07/21 00:43:42;;;;;;;1.00;0.25;;;22.20;74.60;;;;;;5114074;28;20048;-80
2023/07/21 00:46:10;;;;;;;0.60;0.20;;;22.20;74.60;;;;;;5114145;28;20052;-80
2023/07/21 00:48:37;;;;;;;0.60;0.10;;;22.20;74.60;;;;;;5095409;28;20042;-80
2023/07/21 00:51:03;;;;;;;0.40;0.10;;;22.20;74.70;;;;;;5114160;28;20046;-80
2023/07/21 00:53:29;;;;;;;0.40;0.20;;;22.20;74.70;;;;;;5113755;28;20476;-79
2023/07/21 00:55:55;;;;;;;3.65;0.30;;;22.20;74.70;;;;;;5114135;28;20032;-79
2023/07/21 00:58:22;;;;;;;0.82;0.20;;;22.10;74.70;;;;;;5113939;28;20472;-79
2023/07/21 01:00:48;;;;;;;0.50;0.20;;;22.10;74.80;;;;;;5114050;28;20031;-80
2023/07/21 01:03:16;;;;;;;0.50;0.17;;;22.10;74.80;;;;;;5095646;28;20046;-80
2023/07/21 01:05:47;;;;;;;0.30;0.10;;;22.10;74.80;;;;;;5113738;28;20019;-80
2023/07/21 01:08:14;;;;;;;0.60;0.55;;;22.10;74.60;;;;;;5113982;28;20052;-80
2023/07/21 01:10:41;;;;;;;1.38;0.15;;;22.00;74.70;;;;;;5113679;28;20137;-79
2023/07/21 01:13:08;;;;;;;0.20;0.10;;;22.00;75.00;;;;;;5113980;28;20043;-79
2023/07/21 01:15:37;;;;;;;1.27;0.52;;;21.90;75.10;;;;;;5113542;28;20482;-80
2023/07/21 01:18:05;;;;;;;1.17;0.30;;;21.90;75.10;;;;;;5113812;28;20028;-79
2023/07/21 01:20:31;;;;;;;1.15;0.40;;;21.90;75.20;;;;;;5113484;28;20482;-80
2023/07/21 01:23:17;;;;;;;1.10;0.30;;;21.90;74.80;;;;;;5113245;28;20040;-80
2023/07/21 01:25:43;;;;;;;0.82;0.20;;;21.80;74.40;;;;;;5095628;28;20490;-80
2023/07/21 01:28:12;;;;;;;0.63;0.20;;;21.70;74.30;;;;;;5078869;28;20032;-80
2023/07/21 01:30:39;;;;;;;1.08;0.20;;;21.60;74.90;;;;;;5113479;28;20027;-80
2023/07/21 01:33:07;;;;;;;4.22;0.60;;;21.50;75.30;;;;;;5113494;28;20537;-80
2023/07/21 01:35:34;;;;;;;1.33;0.20;;;21.50;75.00;;;;;;5096241;28;20030;-80
2023/07/21 01:38:00;;;;;;;1.45;0.43;;;21.40;75.40;;;;;;5113401;28;20020;-80
2023/07/21 01:40:27;;;;;;;0.60;0.20;;;21.30;74.90;;;;;;5113466;28;20020;-80
2023/07/21 01:42:53;;;;;;;0.40;0.20;;;21.30;75.70;;;;;;5078677;28;20138;-79
2023/07/21 01:45:19;;;;;;;0.77;0.17;;;21.30;75.80;;;;;;5113489;28;20395;-80
2023/07/21 01:47:48;;;;;;;0.57;0.10;;;21.30;76.10;;;;;;5114200;28;20031;-80
2023/07/21 01:50:16;;;;;;;0.45;0.20;;;21.40;76.30;;;;;;5112904;28;20032;-80
2023/07/21 01:52:45;;;;;;;0.82;0.20;;;21.40;76.30;;;;;;5114498;28;20107;-80
2023/07/21 01:55:24;;;;;;;0.43;0.20;;;21.50;76.10;;;;;;5117481;28;20042;-80
2023/07/21 01:57:58;;;;;;;0.60;0.20;;;21.50;76.30;;;;;;5117574;28;20023;-80
2023/07/21 02:00:28;;;;;;;0.35;0.20;;;21.60;76.20;;;;;;5117796;28;20038;-80
2023/07/21 02:02:54;;;;;;;0.45;0.10;;;21.60;76.20;;;;;;5117033;28;20020;-80
2023/07/21 02:05:21;;;;;;;0.50;0.10;;;21.60;76.20;;;;;;5117315;28;20077;-80
2023/07/21 02:07:47;;;;;;;0.52;0.10;;;21.60;76.20;;;;;;5116894;28;20417;-79
2023/07/21 02:10:13;;;;;;;1.10;0.20;;;21.60;76.10;;;;;;5117090;28;20042;-80
2023/07/21 02:12:39;;;;;;;0.50;0.20;;;21.60;76.00;;;;;;5116896;28;20036;-80
2023/07/21 02:15:06;;;;;;;1.40;0.30;;;21.60;75.60;;;;;;5098735;28;20088;-80
2023/07/21 02:17:33;;;;;;;0.95;0.30;;;21.50;74.80;;;;;;5098667;28;20020;-80
2023/07/21 02:19:59;;;;;;;0.50;0.20;;;21.30;75.00;;;;;;5116340;28;20046;-80
2023/07/21 02:22:25;;;;;;;1.05;0.20;;;21.10;75.50;;;;;;5098292;28;20468;-80
2023/07/21 02:24:50;;;;;;;0.98;0.30;;;21.10;75.90;;;;;;5116195;28;20046;-80
2023/07/21 02:27:16;;;;;;;1.25;0.25;;;21.10;76.30;;;;;;5116329;28;20023;-80
2023/07/21 02:29:48;;;;;;;0.77;0.38;;;21.00;76.40;;;;;;5116280;28;20110;-80
2023/07/21 02:32:14;;;;;;;1.58;0.20;;;21.00;76.80;;;;;;5116235;28;20024;-80
2023/07/21 02:34:41;;;;;;;1.75;0.20;;;21.10;76.80;;;;;;5115940;28;20038;-79
2023/07/21 02:37:06;;;;;;;0.73;0.30;;;21.10;76.90;;;;;;5116047;28;20037;-80
2023/07/21 02:39:32;;;;;;;0.55;0.15;;;21.20;76.90;;;;;;5116029;28;20031;-80
2023/07/21 02:41:59;;;;;;;0.80;0.30;;;21.20;76.90;;;;;;5115950;28;20034;-80
2023/07/21 02:44:26;;;;;;;0.95;0.35;;;21.30;76.80;;;;;;5116126;28;20179;-80
2023/07/21 02:46:52;;;;;;;0.55;0.22;;;21.30;76.90;;;;;;5115604;28;20035;-80
2023/07/21 02:49:18;;;;;;;0.82;0.20;;;21.30;77.00;;;;;;5115726;28;20020;-80
2023/07/21 02:51:44;;;;;;;0.55;0.30;;;21.30;76.90;;;;;;5097726;28;20445;-80
2023/07/21 02:54:09;;;;;;;0.60;0.30;;;21.30;76.90;;;;;;5080888;28;20032;-79
2023/07/21 02:56:35;;;;;;;0.77;0.20;;;21.30;76.90;;;;;;5116075;28;20027;-80
2023/07/21 02:59:02;;;;;;;0.50;0.20;;;21.30;76.80;;;;;;5115533;28;20036;-79
2023/07/21 03:01:29;;;;;;;0.60;0.20;;;21.30;76.70;;;;;;5115729;28;20023;-79
2023/07/21 03:03:56;;;;;;;0.70;0.22;;;21.30;76.80;;;;;;5097332;28;20032;-80
2023/07/21 03:06:21;;;;;;;0.50;0.20;;;21.30;76.80;;;;;;5115556;28;20153;-80
2023/07/21 03:08:48;;;;;;;0.50;0.10;;;21.40;76.80;;;;;;5115625;28;20106;-80
2023/07/21 03:11:14;;;;;;;0.98;0.20;;;21.40;76.80;;;;;;5115318;28;20146;-80
2023/07/21 03:13:43;;;;;;;0.40;0.20;;;21.40;76.60;;;;;;5115373;28;20114;-80
2023/07/21 03:16:09;;;;;;;1.40;0.20;;;21.40;76.60;;;;;;5115670;28;20050;-80
2023/07/21 03:18:35;;;;;;;0.50;0.20;;;21.40;76.60;;;;;;5096639;28;20502;-80
2023/07/21 03:21:00;;;;;;;0.38;0.20;;;21.40;76.60;;;;;;5115247;28;20463;-80
2023/07/21 03:23:26;;;;;;;0.50;0.20;;;21.30;76.80;;;;;;5115337;28;20034;-79
2023/07/21 03:25:51;;;;;;;1.00;0.20;;;21.30;77.00;;;;;;5114926;28;20032;-80
2023/07/21 03:28:18;;;;;;;0.70;0.20;;;21.30;77.10;;;;;;5115241;28;20034;-80
2023/07/21 03:30:45;;;;;;;0.65;0.20;;;21.30;77.10;;;;;;5114979;28;20024;-80
2023/07/21 03:33:11;;;;;;;1.20;0.20;;;21.20;77.10;;;;;;5097331;28;20024;-80
2023/07/21 03:35:36;;;;;;;0.98;0.22;;;21.20;77.10;;;;;;5079926;28;20433;-80
2023/07/21 03:38:02;;;;;;;0.88;0.20;;;21.20;77.10;;;;;;5114946;28;20521;-80
2023/07/21 03:40:28;;;;;;;0.82;0.25;;;21.20;77.20;;;;;;5115110;28;20061;-80
2023/07/21 03:42:54;;;;;;;1.27;0.20;;;21.20;77.30;;;;;;5115159;28;20031;-79
2023/07/21 03:45:19;;;;;;;0.55;0.22;;;21.20;77.50;;;;;;5114316;28;20097;-80
2023/07/21 03:47:45;;;;;;;0.77;0.20;;;21.20;77.50;;;;;;5096745;28;20036;-80
2023/07/21 03:50:10;;;;;;;0.40;0.20;;;21.20;78.10;;;;;;5114475;28;20077;-80
2023/07/21 03:52:36;;;;;;;0.63;0.20;;;21.20;77.50;;;;;;5114832;28;20071;-80
2023/07/21 03:55:03;;;;;;;0.60;0.20;;;21.10;77.30;;;;;;5096643;28;20039;-80
2023/07/21 03:57:28;;;;;;;0.57;0.20;;;21.10;77.50;;;;;;5114525;28;20055;-80
2023/07/21 03:59:54;;;;;;;0.77;0.22;;;21.10;77.60;;;;;;5114404;28;20059;-80
2023/07/21 04:02:20;;;;;;;1.05;0.30;;;21.10;77.60;;;;;;5114450;28;20395;-80
2023/07/21 04:04:46;;;;;;;1.50;0.20;;;21.10;77.60;;;;;;5096187;28;20042;-80
2023/07/21 04:07:12;;;;;;;0.60;0.20;;;21.10;77.70;;;;;;5096154;28;20077;-80
2023/07/21 04:09:38;;;;;;;0.63;0.20;;;21.10;77.70;;;;;;5079371;28;20122;-80
2023/07/21 04:12:05;;;;;;;0.75;0.30;;;21.10;77.70;;;;;;5114525;28;20023;-80
2023/07/21 04:14:31;;;;;;;0.40;0.17;;;21.00;77.70;;;;;;5096089;28;20085;-80
2023/07/21 04:16:57;;;;;;;0.45;0.20;;;21.10;77.70;;;;;;5114035;28;20027;-80
2023/07/21 04:19:25;;;;;;;0.75;0.15;;;21.10;77.70;;;;;;5095451;28;20024;-79
2023/07/21 04:21:52;;;;;;;0.50;0.20;;;21.10;77.80;;;;;;5114837;28;20084;-80
2023/07/21 04:24:18;;;;;;;0.52;0.20;;;21.10;77.80;;;;;;5114337;28;20380;-80
2023/07/21 04:26:43;;;;;;;0.60;0.22;;;21.10;77.90;;;;;;5114151;28;20058;-80
2023/07/21 04:29:09;;;;;;;1.58;0.20;;;21.10;77.40;;;;;;5114469;28;20059;-80
2023/07/21 04:31:35;;;;;;;0.20;0.10;;;21.00;77.80;;;;;;5096453;28;20027;-80
2023/07/21 04:34:01;;;;;;;0.70;0.20;;;21.00;77.90;;;;;;5114448;28;20406;-80
2023/07/21 04:36:27;;;;;;;2.70;0.77;;;21.00;77.90;;;;;;5113974;28;20084;-80
2023/07/21 04:38:53;;;;;;;0.63;0.20;;;21.00;77.80;;;;;;5114281;28;20036;-80
2023/07/21 04:41:19;;;;;;;0.60;0.20;;;21.10;78.00;;;;;;5095741;28;20036;-80
2023/07/21 04:43:44;;;;;;;1.70;0.25;;;21.10;78.00;;;;;;5113870;28;20502;-80
2023/07/21 04:46:12;;;;;;;0.70;0.20;;;21.10;78.00;;;;;;5113623;28;20056;-80
2023/07/21 04:48:39;;;;;;;0.50;0.20;;;21.10;77.90;;;;;;5074955;28;20059;-80
2023/07/21 04:51:04;;;;;;;0.55;0.20;;;21.10;77.90;;;;;;5093786;28;20036;-80
2023/07/21 04:53:30;;;;;;;0.45;0.20;;;21.10;77.80;;;;;;5093791;28;20063;-80
2023/07/21 04:55:57;;;;;;;1.23;0.40;;;21.10;77.90;;;;;;5092766;28;20034;-80
2023/07/21 04:58:24;;;;;;;0.60;0.10;;;21.10;77.90;;;;;;5092428;28;20024;-79
2023/07/21 05:00:49;;;;;;;1.42;0.30;;;21.10;78.00;;;;;;5093525;28;20024;-79
2023/07/21 05:03:15;;;;;;;0.55;0.20;;;21.00;77.60;;;;;;5092236;28;20024;-79
2023/07/21 05:05:41;;;;;;;0.50;0.20;;;20.90;78.20;;;;;;5092457;28;20032;-79
2023/07/21 05:08:06;;;;;;;0.85;0.17;;;20.90;78.20;;;;;;5093776;28;20039;-79
2023/07/21 05:10:32;;;;;;;1.15;0.20;;;20.90;78.10;;;;;;5075619;28;20024;-79
2023/07/21 05:13:00;;;;;;;0.80;0.20;;;20.90;78.30;;;;;;5093354;28;20024;-79
2023/07/21 05:15:25;;;;;;;0.60;0.32;;;20.90;78.30;;;;;;5093536;28;20051;-80
2023/07/21 05:17:51;;;;;;;0.50;0.30;;;21.00;78.30;;;;;;5093620;28;20024;-79
2023/07/21 05:20:19;;;;;;;0.88;0.30;;;21.00;78.10;;;;;;5093032;28;20067;-79
2023/07/21 05:22:46;;;;;;;1.20;0.20;;;21.00;78.10;;;;;;5092150;28;20127;-79
2023/07/21 05:25:17;;;;;;;0.50;0.20;;;20.90;78.10;;;;;;5075589;28;20036;-80
2023/07/21 05:27:46;;;;;;;0.63;0.30;;;20.90;78.20;;;;;;5094839;28;20024;-80
2023/07/21 05:30:13;;;;;;;0.45;0.20;;;20.90;78.20;;;;;;5097486;28;20051;-80
2023/07/21 05:32:41;;;;;;;0.65;0.20;;;20.90;78.20;;;;;;5097613;28;20032;-81
2023/07/21 05:35:10;;;;;;;0.77;0.30;;;21.00;78.40;;;;;;5097282;28;20567;-80
2023/07/21 05:37:35;;;;;;;1.58;0.30;;;21.00;78.10;;;;;;5097573;28;20110;-80
2023/07/21 05:40:02;;;;;;;0.30;0.20;;;20.90;77.90;;;;;;5089817;28;20067;-75
2023/07/21 05:42:27;;;;;;;1.15;0.25;;;20.90;78.60;;;;;;5083493;28;20020;-77
2023/07/21 05:44:53;;;;;;;1.77;0.20;;;21.10;79.30;;;;;;5090308;28;20047;-77
2023/07/21 05:47:19;;;;;;;1.20;0.20;;;21.20;78.70;;;;;;5092720;28;20044;-78
2023/07/21 05:49:45;;;;;;;1.20;0.30;;;21.40;77.90;;;;;;5094814;28;20024;-78
2023/07/21 05:52:11;;;;;;;1.17;0.20;;;21.60;77.20;;;;;;5095792;28;20452;-77
2023/07/21 05:54:37;;;;;;;1.02;0.38;;;21.70;76.60;;;;;;5096698;28;20020;-76
2023/07/21 05:57:04;;;;;;;0.95;0.30;;;21.70;76.00;;;;;;5096228;28;20020;-78
2023/07/21 05:59:31;;;;;;;0.85;0.22;;;21.80;75.60;;;;;;5079084;28;20024;-78
2023/07/21 06:01:58;;;;;;;0.75;0.30;;;21.90;75.40;;;;;;5095507;28;20020;-78
2023/07/21 06:04:24;;;;;;;1.15;0.30;;;21.90;74.90;;;;;;5094914;28;20032;-76
2023/07/21 06:06:50;;;;;;;1.63;0.40;;;22.00;74.70;;;;;;5096593;28;20072;-76
2023/07/21 06:09:17;;;;;;;1.13;0.50;;;22.00;74.30;;;;;;5097086;28;20061;-77
2023/07/21 06:11:42;;;;;;;1.58;0.65;;;22.10;74.10;;;;;;5095487;28;20024;-76
2023/07/21 06:14:08;;;;;;;1.23;0.40;;;22.10;73.90;;;;;;5095160;28;20035;-76
2023/07/21 06:16:34;;;;;;;0.85;0.30;;;22.20;73.90;;;;;;5096696;28;20028;-75
2023/07/21 06:19:00;;;;;;;1.42;0.30;;;22.20;74.00;;;;;;5096059;28;20448;-77
2023/07/21 06:21:26;;;;;;;1.35;0.30;;;22.30;74.10;;;;;;5090976;28;20157;-76
2023/07/21 06:23:53;;;;;;;0.70;0.30;;;22.30;73.90;;;;;;5096554;28;20456;-76
2023/07/21 06:26:19;;;;;;;0.90;0.30;;;22.40;73.90;;;;;;5096625;28;20020;-76
2023/07/21 06:28:44;;;;;;;1.25;0.32;;;22.40;73.70;;;;;;5094024;28;20099;-77
2023/07/21 06:31:11;;;;;;;1.67;0.30;;;22.50;73.50;;;;;;5094839;28;20020;-76
2023/07/21 06:33:37;;;;;;;0.90;0.30;;;22.50;73.20;;;;;;5096081;28;20020;-77
2023/07/21 06:36:03;;;;;;;0.90;0.32;;;22.50;73.10;;;;;;5094831;28;20129;-76
2023/07/21 06:38:29;;;;;;;1.63;0.40;;;22.40;72.70;;;;;;5093857;28;20028;-75
2023/07/21 06:40:55;;;;;;;0.70;0.38;;;22.40;73.00;;;;;;5075729;28;20376;-76
2023/07/21 06:43:21;;;;;;;0.90;0.30;;;22.50;73.00;;;;;;5076674;28;20111;-76
2023/07/21 06:45:47;;;;;;;2.80;0.40;;;22.60;72.80;;;;;;5093944;28;20119;-75
2023/07/21 06:48:12;;;;;;;1.42;0.55;;;22.60;72.60;;;;;;5093549;28;20385;-76
2023/07/21 06:50:38;;;;;;;1.15;0.52;;;22.70;72.90;;;;;;5095830;28;20073;-76
2023/07/21 06:53:05;;;;;;;0.77;0.40;;;22.80;72.10;;;;;;5095793;28;20028;-76
2023/07/21 06:55:32;;;;;;;1.52;0.50;;;22.80;72.10;;;;;;5077585;28;20036;-75
2023/07/21 06:58:04;;;;;;;1.45;0.30;;;22.90;72.10;;;;;;5094730;28;20059;-75
2023/07/21 07:00:30;;;;;;;1.60;0.40;;;22.90;71.80;;;;;;5095541;28;20412;-76
2023/07/21 07:02:56;;;;;;;0.88;0.32;;;23.00;71.70;;;;;;5077568;28;20074;-76
2023/07/21 07:05:23;;;;;;;1.00;0.40;;;23.10;71.80;;;;;;5095342;28;20043;-75
2023/07/21 07:07:52;;;;;;;1.30;0.30;;;23.10;71.40;;;;;;5095749;28;20028;-75
2023/07/21 07:10:18;;;;;;;1.60;0.40;;;23.10;71.60;;;;;;5095112;28;20020;-76
2023/07/21 07:12:43;;;;;;;1.77;0.38;;;23.20;71.40;;;;;;5094177;28;20032;-75
2023/07/21 07:15:10;;;;;;;1.73;0.45;;;23.20;71.50;;;;;;5095406;28;20085;-78
2023/07/21 07:17:36;;;;;;;1.30;0.40;;;23.20;71.20;;;;;;5088500;28;20031;-76
2023/07/21 07:20:04;;;;;;;1.67;0.40;;;23.20;71.70;;;;;;5094524;28;20030;-76
2023/07/21 07:22:29;;;;;;;2.78;0.30;;;23.10;71.50;;;;;;5085854;28;20069;-76
2023/07/21 07:24:55;;;;;;;2.13;0.40;;;23.10;71.20;;;;;;5059707;28;20510;-76
2023/07/21 07:27:21;;;;;;;2.85;0.30;;;23.00;71.30;;;;;;5094744;28;20024;-77
2023/07/21 07:29:47;;;;;;;1.63;0.30;;;23.00;71.20;;;;;;5095353;28;20031;-77
2023/07/21 07:32:14;;;;;;;1.95;0.40;;;23.00;71.40;;;;;;5094565;28;20028;-78
2023/07/21 07:34:41;;;;;;;3.45;0.50;;;23.00;71.00;;;;;;5076137;28;20426;-78
2023/07/21 07:37:07;;;;;;;1.33;0.68;;;23.00;70.30;;;;;;5090170;28;20023;-78
2023/07/21 07:39:32;;;;;;;1.73;0.50;;;23.00;69.90;;;;;;5100621;28;20486;-78
2023/07/21 07:41:58;;;;;;;2.15;0.50;;;23.00;69.60;;;;;;5103240;28;20024;-78
2023/07/21 07:44:24;;;;;;;1.38;0.32;;;22.90;70.10;;;;;;5110640;28;20044;-78
2023/07/21 07:46:50;;;;;;;0.90;0.32;;;22.90;70.50;;;;;;5101167;28;20111;-78
2023/07/21 07:49:15;;;;;;;0.80;0.43;;;22.90;70.20;;;;;;5102420;27;20027;-77
2023/07/21 07:51:41;;;;;;;1.77;0.38;;;23.00;69.40;;;;;;5089735;27;20027;-78
2023/07/21 07:54:10;;;;;;;3.63;0.30;;;23.00;69.80;;;;;;5106921;27;20031;-78
2023/07/21 07:56:35;;;;;;;1.52;0.45;;;23.10;69.90;;;;;;5105126;27;20031;-79
2023/07/21 07:59:01;;;;;;;0.98;0.40;;;23.00;69.30;;;;;;5106703;27;20110;-80
2023/07/21 08:01:33;;;;;;;2.35;0.50;;;23.00;69.30;;;;;;5078705;28;20429;-84
2023/07/21 08:03:59;;;;;;;3.23;0.50;;;22.90;69.40;;;;;;5092869;28;20040;-82
2023/07/21 08:06:25;;;;;;;1.40;0.40;;;22.90;69.50;;;;;;5093274;28;20258;-84
2023/07/21 08:08:50;;;;;;;1.27;0.43;;;22.90;69.00;;;;;;5076384;28;20486;-82
2023/07/21 08:11:16;;;;;;;1.50;0.30;;;22.80;68.90;;;;;;5093524;28;20051;-81
2023/07/21 08:13:42;;;;;;;2.38;0.50;;;22.70;69.60;;;;;;5094284;28;20032;-85
2023/07/21 08:16:09;;;;;;;0.90;0.40;;;22.70;70.30;;;;;;5109469;28;20045;-80
2023/07/21 08:18:35;;;;;;;1.33;0.50;;;22.50;69.20;;;;;;5078056;28;20036;-81
2023/07/21 08:21:17;;;;;;;1.25;0.47;;;22.40;69.60;;;;;;5094575;28;20509;-82
2023/07/21 08:23:43;;;;;;;1.75;0.40;;;22.40;69.90;;;;;;5123873;27;20047;-84
2023/07/21 08:26:08;;;;;;;2.03;0.35;;;22.30;69.30;;;;;;5076561;28;20403;-85
2023/07/21 08:28:34;;;;;;;3.67;0.60;;;22.20;69.80;;;;;;5093712;28;20416;-82
2023/07/21 08:31:00;;;;;;;5.28;0.50;;;22.20;69.50;;;;;;5096092;28;20031;-82
2023/07/21 08:33:26;;;;;;;2.85;0.80;;;22.20;68.90;;;;;;5114540;28;20023;-78
2023/07/21 08:35:52;;;;;;;2.53;0.55;;;22.20;69.60;;;;;;5114395;28;20521;-80
2023/07/21 08:38:17;;;;;;;3.97;0.82;;;22.10;70.40;;;;;;5096032;28;20035;-79
2023/07/21 08:40:49;;;;;;;1.92;0.63;;;22.10;70.70;;;;;;5096044;28;20024;-82
2023/07/21 08:43:16;;;;;;;2.20;0.70;;;22.10;70.80;;;;;;5114237;28;20024;-82
2023/07/21 08:45:44;;;;;;;1.40;0.40;;;22.10;70.70;;;;;;5113840;28;20031;-81
2023/07/21 08:48:10;;;;;;;2.47;0.47;;;22.20;70.70;;;;;;5114271;28;20056;-83
2023/07/21 08:50:40;;;;;;;1.45;0.50;;;22.30;70.90;;;;;;5078709;28;20502;-83
2023/07/21 08:53:06;;;;;;;1.27;0.50;;;22.40;70.60;;;;;;5112792;28;20058;-79
2023/07/21 08:55:33;;;;;;;1.73;0.50;;;22.40;70.00;;;;;;5114120;28;20032;-80
2023/07/21 08:57:59;;;;;;;2.17;0.95;;;22.50;70.10;;;;;;5113952;28;20114;-79
2023/07/21 09:00:26;;;;;;;2.88;0.50;;;22.60;70.20;;;;;;5095696;28;20064;-79
2023/07/21 09:02:59;;;;;;;1.88;1.15;;;22.60;69.40;;;;;;5113580;28;20023;-80
2023/07/21 09:05:26;;;;;;;1.33;0.70;;;22.50;69.60;;;;;;5113211;28;20535;-80
2023/07/21 09:07:51;;;;;;;2.30;1.10;;;22.50;70.10;;;;;;5079313;28;20034;-80
2023/07/21 09:10:31;;;;;;;1.98;1.08;;;22.60;69.90;;;;;;5113136;28;20082;-79
2023/07/21 09:12:58;;;;;;;1.77;0.68;;;22.70;69.00;;;;;;5111362;28;20023;-79
2023/07/21 09:15:24;;;;;;;1.90;1.10;;;22.70;68.20;;;;;;5095990;28;20070;-81
2023/07/21 09:17:49;;;;;;;1.40;0.60;;;22.80;68.30;;;;;;5095575;28;20055;-81
2023/07/21 09:20:15;;;;;;;1.30;0.57;;;22.80;68.00;;;;;;5078212;28;20032;-80
2023/07/21 09:22:41;;;;;;;1.00;0.57;;;22.90;68.30;;;;;;5113297;28;20118;-80
2023/07/21 09:25:08;;;;;;;1.70;0.40;;;23.00;68.00;;;;;;5095145;28;20036;-79
2023/07/21 09:27:35;;;;;;;2.30;0.80;;;23.00;67.70;;;;;;5113428;28;20031;-80
2023/07/21 09:30:03;;;;;;;3.15;0.50;;;23.10;68.10;;;;;;5112125;28;20027;-80
2023/07/21 09:32:39;;;;;;;0.95;0.70;;;23.20;65.10;;;;;;5094223;28;20059;-79
2023/07/21 09:35:05;;;;;;;1.58;0.95;;;23.10;64.20;;;;;;5112620;28;20035;-80
2023/07/21 09:37:33;;;;;;;2.00;0.88;;;23.00;65.40;;;;;;5113388;28;20024;-82
2023/07/21 09:40:01;;;;;;;3.13;0.50;;;23.00;67.10;;;;;;5095129;28;20059;-80
2023/07/21 09:42:29;;;;;;;0.90;0.60;;;23.10;66.20;;;;;;5107196;28;20058;-81
2023/07/21 09:44:56;;;;;;;3.53;0.80;;;23.20;66.30;;;;;;5097479;28;20479;-79
2023/07/21 09:47:22;;;;;;;1.73;0.90;;;23.20;65.90;;;;;;5124010;28;20074;-78
2023/07/21 09:49:55;;;;;;;1.98;0.75;;;23.30;65.60;;;;;;5121828;28;20023;-81
2023/07/21 09:52:22;;;;;;;1.38;0.68;;;23.40;66.00;;;;;;5122238;28;20015;-80
2023/07/21 09:54:52;;;;;;;1.85;0.52;;;23.50;65.30;;;;;;5119516;28;20027;-82
2023/07/21 09:57:23;;;;;;;3.58;0.57;;;23.60;65.20;;;;;;5122488;28;20027;-83
2023/07/21 09:59:50;;;;;;;0.73;0.28;;;23.70;61.90;;;;;;5119907;28;20148;-80
2023/07/21 10:02:17;;;;;;;1.75;0.40;;;23.70;63.20;;;;;;5120998;28;20068;-82
2023/07/21 10:04:46;;;;;;;0.60;0.30;;;23.70;63.10;;;;;;5107570;28;20090;-81
2023/07/21 10:07:12;;;;;;;0.93;0.25;;;23.60;63.20;;;;;;5111232;28;20095;-80
2023/07/21 10:09:39;;;;;;;1.38;0.88;;;23.70;64.10;;;;;;5111558;28;20028;-81
2023/07/21 10:12:19;;;;;;;2.33;0.50;;;23.80;62.80;;;;;;5112092;28;20036;-81
2023/07/21 10:14:45;;;;;;;1.48;0.60;;;23.80;62.70;;;;;;5097449;28;20106;-81
2023/07/21 10:17:21;;;;;;;2.53;0.70;;;23.70;62.80;;;;;;5097284;28;20137;-81
2023/07/21 10:19:47;;;;;;;3.13;0.68;;;23.70;63.00;;;;;;5114199;28;20490;-81
2023/07/21 10:22:26;;;;;;;1.13;0.50;;;23.70;63.20;;;;;;5115333;28;20032;-82
2023/07/21 10:24:52;;;;;;;2.05;0.30;;;23.60;64.10;;;;;;5115191;28;20460;-82
2023/07/21 10:27:20;;;;;;;1.55;0.60;;;23.50;63.10;;;;;;5097407;28;20114;-82
2023/07/21 10:30:18;;;;;;;1.80;0.30;;;23.40;63.20;;;;;;5113168;28;20036;-83
2023/07/21 10:32:43;;;;;;;1.48;0.35;;;23.30;63.20;;;;;;5096384;28;20092;-81
2023/07/21 10:35:39;;;;;;;1.90;0.63;;;23.20;62.80;;;;;;5115115;28;20035;-82
2023/07/21 10:38:13;;;;;;;0.90;0.43;;;23.10;62.90;;;;;;5092014;28;20048;-83
2023/07/21 10:40:44;;;;;;;1.27;0.70;;;23.00;63.90;;;;;;5114879;28;20031;-83
2023/07/21 10:43:10;;;;;;;1.10;0.60;;;23.00;63.90;;;;;;5114079;28;20031;-78
2023/07/21 10:45:36;;;;;;;2.35;0.60;;;22.90;64.50;;;;;;5096331;28;20027;-80
2023/07/21 10:48:11;;;;;;;1.95;0.70;;;23.00;65.40;;;;;;5077855;28;20510;-80
2023/07/21 10:50:58;;;;;;;2.90;1.00;;;23.10;66.30;;;;;;5115251;27;20466;-79
2023/07/21 10:53:24;;;;;;;2.55;0.70;;;23.20;65.20;;;;;;5114492;28;20023;-79
2023/07/21 10:55:51;;;;;;;1.80;0.63;;;23.30;65.60;;;;;;5114233;28;20102;-79
2023/07/21 10:58:17;;;;;;;2.00;0.70;;;23.40;65.40;;;;;;5114391;28;20425;-81
2023/07/21 11:00:46;;;;;;;1.10;0.30;;;23.50;65.30;;;;;;5114257;28;20027;-80
2023/07/21 11:03:12;;;;;;;2.30;0.47;;;23.70;64.40;;;;;;5096426;28;20027;-80
2023/07/21 11:05:38;;;;;;;0.90;0.50;;;23.70;63.30;;;;;;5114707;28;20505;-79
2023/07/21 11:08:04;;;;;;;2.08;0.30;;;23.80;63.20;;;;;;5113856;28;20046;-79
2023/07/21 11:10:33;;;;;;;2.75;0.50;;;24.00;62.80;;;;;;5093313;28;20024;-78
2023/07/21 11:13:00;;;;;;;1.10;0.40;;;24.10;61.30;;;;;;5114446;28;20023;-79
2023/07/21 11:15:26;;;;;;;2.22;0.38;;;24.20;60.80;;;;;;5111631;28;20424;-80
2023/07/21 11:18:03;;;;;;;0.57;0.25;;;24.40;61.50;;;;;;5095518;28;20413;-78
2023/07/21 11:20:28;;;;;;;1.77;0.45;;;24.50;61.90;;;;;;5113433;28;20115;-80
2023/07/21 11:22:54;;;;;;;0.60;0.20;;;24.60;58.90;;;;;;5113871;28;20114;-78
2023/07/21 11:25:20;;;;;;;1.83;0.20;;;24.70;58.80;;;;;;5092677;28;20432;-80
2023/07/21 11:27:48;;;;;;;0.80;0.30;;;24.80;59.20;;;;;;5113962;28;20020;-80
2023/07/21 11:30:18;;;;;;;2.22;0.35;;;24.90;59.10;;;;;;5113532;28;20387;-78
2023/07/21 11:32:44;;;;;;;2.15;0.40;;;24.90;58.50;;;;;;5095813;28;20033;-79
2023/07/21 11:35:10;;;;;;;3.70;0.50;;;25.00;58.60;;;;;;5076575;28;20032;-80
2023/07/21 11:37:38;;;;;;;1.13;0.50;;;25.00;62.40;;;;;;5095923;28;20081;-80
2023/07/21 11:40:14;;;;;;;1.38;0.40;;;25.00;60.40;;;;;;5114132;28;20024;-80
2023/07/21 11:42:48;;;;;;;1.45;0.40;;;25.00;59.00;;;;;;5097290;28;20035;-80
2023/07/21 11:45:40;;;;;;;1.05;0.40;;;24.90;58.20;;;;;;5093017;28;20475;-79
2023/07/21 11:48:18;;;;;;;1.60;0.45;;;24.80;57.70;;;;;;5113382;28;20036;-79
2023/07/21 11:50:54;;;;;;;1.60;0.65;;;24.70;58.00;;;;;;5113334;28;20035;-77
2023/07/21 11:53:23;;;;;;;2.72;0.45;;;24.60;58.40;;;;;;5113363;28;20030;-79
2023/07/21 11:55:49;;;;;;;2.85;0.60;;;24.60;58.50;;;;;;5094461;28;20027;-79
2023/07/21 11:58:15;;;;;;;4.80;0.63;;;24.60;59.10;;;;;;5110770;28;20043;-79
2023/07/21 12:00:42;;;;;;;4.40;0.43;;;24.60;59.30;;;;;;5077308;28;20031;-78
2023/07/21 12:03:10;;;;;;;3.63;0.75;;;24.60;59.10;;;;;;5112873;28;20072;-80
2023/07/21 12:05:36;;;;;;;3.33;1.10;;;24.60;59.50;;;;;;5113170;28;20035;-80
2023/07/21 12:08:01;;;;;;;1.65;0.65;;;24.60;59.80;;;;;;5113185;28;20088;-79
2023/07/21 12:10:27;;;;;;;2.63;0.50;;;24.70;59.80;;;;;;5113293;28;20035;-79
2023/07/21 12:12:53;;;;;;;3.53;1.38;;;24.70;59.70;;;;;;5095147;28;20353;-79
2023/07/21 12:15:19;;;;;;;1.30;0.70;;;24.60;59.30;;;;;;5113580;28;20418;-80
2023/07/21 12:17:49;;;;;;;0.80;0.40;;;24.50;59.60;;;;;;5112520;28;20079;-79
2023/07/21 12:20:14;;;;;;;2.55;0.60;;;24.20;60.40;;;;;;5112272;28;20028;-79
2023/07/21 12:22:41;;;;;;;4.20;0.60;;;24.20;61.00;;;;;;5103956;28;20038;-79
2023/07/21 12:25:08;;;;;;;1.63;0.57;;;24.10;61.20;;;;;;5111008;28;20058;-80
2023/07/21 12:27:35;;;;;;;1.00;0.50;;;24.10;61.50;;;;;;5113011;28;20028;-80
2023/07/21 12:30:08;;;;;;;2.53;0.60;;;24.20;61.70;;;;;;5094367;28;20028;-79
2023/07/21 12:32:33;;;;;;;1.65;0.43;;;24.10;61.50;;;;;;5113427;28;20107;-79
2023/07/21 12:34:59;;;;;;;2.28;0.60;;;24.10;61.40;;;;;;5113115;28;20107;-79
2023/07/21 12:37:25;;;;;;;1.45;0.55;;;23.90;60.80;;;;;;5111797;28;20051;-79
2023/07/21 12:39:51;;;;;;;4.25;0.60;;;23.80;61.10;;;;;;5112560;28;20027;-79
2023/07/21 12:42:17;;;;;;;3.33;0.63;;;23.60;61.80;;;;;;5112366;28;20031;-79
2023/07/21 12:44:43;;;;;;;2.55;0.40;;;23.60;62.30;;;;;;5112473;28;20040;-78
2023/07/21 12:47:09;;;;;;;2.13;0.30;;;23.40;61.80;;;;;;5112925;28;20491;-79
2023/07/21 12:49:34;;;;;;;1.83;0.98;;;23.40;62.50;;;;;;5109311;28;20040;-79